Time;durP1;ratioP1;P1;durP2;ratioP2;P2;SDS_P1;SDS_P2;PMS_P1;PMS_P2;Temp;Humidity;BMP_temperature;BMP_pressure;BME280_temperature;BME280_humidity;BME280_pressure;Samples;Min_cycle;Max_cycle;Signal;HPM_P1;HPM_P2
2023/06/21 00:01:05;;;;;;;6.05;5.53;;;;;;;;;;4966332;28;20228;-75
2023/06/21 00:03:33;;;;;;;5.55;5.15;;;;;;;;;;5005516;28;20055;-75
2023/06/21 00:06:01;;;;;;;6.00;5.53;;;;;;;;;;4965759;28;20126;-76
2023/06/21 00:08:28;;;;;;;6.10;5.50;;;;;;;;;;4999077;28;20129;-76
2023/06/21 00:10:56;;;;;;;5.38;4.97;;;;;;;;;;4983596;28;20057;-75
2023/06/21 00:13:24;;;;;;;5.55;5.13;;;;;;;;;;4990515;28;20054;-76
2023/06/21 00:15:54;;;;;;;5.60;4.70;;;;;;;;;;4978032;28;20436;-75
2023/06/21 00:18:22;;;;;;;5.33;4.97;;;;;;;;;;4981965;28;20411;-76
2023/06/21 00:20:50;;;;;;;5.32;4.65;;;;;;;;;;4970975;28;20501;-76
2023/06/21 00:23:18;;;;;;;5.03;4.63;;;;;;;;;;4975910;28;20058;-75
2023/06/21 00:25:45;;;;;;;5.35;4.85;;;;;;;;;;4971308;28;20138;-75
2023/06/21 00:28:13;;;;;;;5.57;5.18;;;;;;;;;;4968048;28;20046;-76
2023/06/21 00:30:40;;;;;;;6.40;5.90;;;;;;;;;;4968855;28;20138;-76
2023/06/21 00:33:08;;;;;;;5.60;5.20;;;;;;;;;;4962450;28;20051;-75
2023/06/21 00:35:35;;;;;;;5.57;5.07;;;;;;;;;;4990081;28;20434;-75
2023/06/21 00:38:03;;;;;;;5.63;5.15;;;;;;;;;;4978356;28;20058;-76
2023/06/21 00:40:30;;;;;;;5.03;4.70;;;;;;;;;;4977624;28;20069;-76
2023/06/21 00:43:03;;;;;;;4.80;4.50;;;;;;;;;;4973722;28;20061;-76
2023/06/21 00:45:39;;;;;;;5.72;5.20;;;;;;;;;;4978504;28;20039;-75
2023/06/21 00:48:07;;;;;;;5.10;4.70;;;;;;;;;;4960374;28;20054;-76
2023/06/21 00:50:34;;;;;;;4.95;4.55;;;;;;;;;;4960096;28;20563;-76
2023/06/21 00:53:02;;;;;;;4.32;4.03;;;;;;;;;;4962318;28;20058;-75
2023/06/21 00:58:28;;;;;;;6.63;6.13;;;;;;;;;;4759018;30;20700;-76
2023/06/21 01:00:55;;;;;;;5.85;5.45;;;;;;;;;;4760302;30;20053;-76
2023/06/21 01:03:24;;;;;;;5.10;4.70;;;;;;;;;;4761088;30;20416;-76
2023/06/21 01:06:12;;;;;;;4.30;4.07;;;;;;;;;;4753107;30;20761;-77
2023/06/21 01:08:50;;;;;;;4.38;4.07;;;;;;;;;;4757427;30;20427;-77
2023/06/21 01:11:24;;;;;;;4.45;4.15;;;;;;;;;;4756629;30;20094;-77
2023/06/21 01:14:01;;;;;;;4.30;4.05;;;;;;;;;;4765285;30;20142;-76
2023/06/21 01:16:33;;;;;;;4.63;4.32;;;;;;;;;;4758231;30;20065;-77
2023/06/21 01:19:01;;;;;;;3.80;3.60;;;;;;;;;;4761830;30;20065;-77
2023/06/21 01:21:29;;;;;;;4.68;4.38;;;;;;;;;;4759026;30;20060;-77
2023/06/21 01:24:25;;;;;;;4.82;4.53;;;;;;;;;;4766983;30;20058;-77
2023/06/21 01:26:58;;;;;;;5.20;4.80;;;;;;;;;;4760182;30;21272;-76
2023/06/21 01:29:31;;;;;;;5.13;4.72;;;;;;;;;;4765400;30;20082;-77
2023/06/21 01:32:00;;;;;;;5.30;4.80;;;;;;;;;;4762018;30;20105;-77
2023/06/21 01:34:28;;;;;;;5.57;5.18;;;;;;;;;;4758831;30;20423;-77
2023/06/21 01:36:57;;;;;;;5.40;5.00;;;;;;;;;;4764171;30;20056;-76
2023/06/21 01:39:31;;;;;;;4.82;4.53;;;;;;;;;;4761803;30;20643;-76
2023/06/21 01:41:59;;;;;;;5.15;4.85;;;;;;;;;;4764874;30;20048;-77
2023/06/21 01:44:27;;;;;;;4.65;4.35;;;;;;;;;;4764114;30;20089;-77
2023/06/21 01:47:04;;;;;;;4.70;4.40;;;;;;;;;;4766280;30;20062;-77
2023/06/21 01:49:33;;;;;;;4.30;4.05;;;;;;;;;;4750888;30;20051;-77
2023/06/21 01:52:04;;;;;;;4.72;4.43;;;;;;;;;;4763801;30;20052;-76
2023/06/21 01:54:34;;;;;;;4.80;4.50;;;;;;;;;;4752722;30;20082;-76
2023/06/21 01:57:03;;;;;;;4.57;4.28;;;;;;;;;;4760849;30;20071;-77
2023/06/21 01:59:31;;;;;;;4.88;4.53;;;;;;;;;;4769754;30;20064;-76
2023/06/21 02:02:00;;;;;;;5.10;4.78;;;;;;;;;;4766085;30;20047;-76
2023/06/21 02:04:29;;;;;;;5.13;4.72;;;;;;;;;;4774189;29;20054;-77
2023/06/21 02:06:57;;;;;;;5.35;4.95;;;;;;;;;;4767587;30;20059;-76
2023/06/21 02:09:25;;;;;;;4.85;4.47;;;;;;;;;;4766953;30;20063;-77
2023/06/21 02:11:53;;;;;;;4.55;4.25;;;;;;;;;;4759752;30;20062;-77
2023/06/21 02:14:20;;;;;;;4.05;3.75;;;;;;;;;;4778790;29;20062;-77
2023/06/21 02:16:48;;;;;;;5.70;4.88;;;;;;;;;;4760591;30;20064;-77
2023/06/21 02:19:17;;;;;;;5.32;5.00;;;;;;;;;;4765949;30;20054;-76
2023/06/21 02:21:45;;;;;;;4.50;4.20;;;;;;;;;;4770170;30;20113;-77
2023/06/21 02:24:14;;;;;;;4.65;4.25;;;;;;;;;;4757804;30;20126;-76
2023/06/21 02:26:42;;;;;;;4.97;4.57;;;;;;;;;;4760628;30;20511;-77
2023/06/21 02:29:12;;;;;;;4.45;4.15;;;;;;;;;;4762646;30;20154;-77
2023/06/21 02:31:39;;;;;;;4.57;4.22;;;;;;;;;;4764480;30;20144;-77
2023/06/21 02:34:07;;;;;;;4.25;4.00;;;;;;;;;;4764645;29;20105;-77
2023/06/21 02:36:36;;;;;;;4.35;3.95;;;;;;;;;;4761839;30;20083;-77
2023/06/21 02:39:04;;;;;;;5.40;4.90;;;;;;;;;;4760041;30;20066;-75
2023/06/21 02:41:32;;;;;;;5.03;4.63;;;;;;;;;;4766711;30;20067;-76
2023/06/21 02:43:59;;;;;;;4.53;4.22;;;;;;;;;;4766476;30;20058;-76
2023/06/21 02:46:27;;;;;;;5.07;4.57;;;;;;;;;;4763724;30;20087;-76
2023/06/21 02:48:55;;;;;;;4.10;3.90;;;;;;;;;;4766261;30;20051;-76
2023/06/21 02:51:24;;;;;;;4.00;3.75;;;;;;;;;;4763469;30;20064;-76
2023/06/21 02:53:52;;;;;;;4.03;3.72;;;;;;;;;;4764081;30;20086;-76
2023/06/21 02:56:20;;;;;;;4.60;4.30;;;;;;;;;;4765344;30;20086;-76
2023/06/21 02:58:47;;;;;;;5.10;4.60;;;;;;;;;;4770923;30;20486;-76
2023/06/21 03:01:16;;;;;;;4.65;4.35;;;;;;;;;;4744996;30;20510;-75
2023/06/21 03:03:44;;;;;;;4.43;4.13;;;;;;;;;;4772480;30;20071;-76
2023/06/21 03:06:12;;;;;;;6.60;4.20;;;;;;;;;;4765274;30;20069;-76
2023/06/21 03:08:40;;;;;;;4.32;3.92;;;;;;;;;;4774073;30;20196;-76
2023/06/21 03:11:08;;;;;;;5.22;4.80;;;;;;;;;;4767351;30;20147;-76
2023/06/21 03:13:38;;;;;;;5.63;5.13;;;;;;;;;;4774726;30;20048;-76
2023/06/21 03:16:06;;;;;;;5.00;4.60;;;;;;;;;;4783070;30;20047;-76
2023/06/21 03:18:34;;;;;;;4.18;3.88;;;;;;;;;;4783110;29;20118;-76
2023/06/21 03:21:01;;;;;;;4.45;4.15;;;;;;;;;;4787945;30;20051;-76
2023/06/21 03:23:30;;;;;;;5.15;4.60;;;;;;;;;;4780132;30;20300;-76
2023/06/21 03:25:58;;;;;;;4.78;4.47;;;;;;;;;;4762858;30;20052;-76
2023/06/21 03:28:25;;;;;;;5.30;4.88;;;;;;;;;;4760875;30;20047;-75
2023/06/21 03:30:53;;;;;;;4.95;4.65;;;;;;;;;;4760160;30;20111;-75
2023/06/21 03:33:20;;;;;;;4.57;4.28;;;;;;;;;;4774171;30;20557;-75
2023/06/21 03:35:48;;;;;;;5.22;4.82;;;;;;;;;;4762505;30;20105;-75
2023/06/21 03:38:17;;;;;;;5.07;4.68;;;;;;;;;;4753687;30;20051;-75
2023/06/21 03:40:46;;;;;;;5.70;5.30;;;;;;;;;;4754709;30;20058;-75
2023/06/21 03:43:13;;;;;;;5.22;4.82;;;;;;;;;;4761907;30;20079;-75
2023/06/21 03:45:43;;;;;;;5.93;5.43;;;;;;;;;;4764385;30;20131;-75
2023/06/21 03:48:11;;;;;;;5.32;4.90;;;;;;;;;;4760484;30;20336;-76
2023/06/21 03:50:38;;;;;;;5.60;5.10;;;;;;;;;;4755357;30;20113;-75
2023/06/21 03:53:06;;;;;;;6.00;5.40;;;;;;;;;;4759210;30;20058;-76
2023/06/21 03:55:37;;;;;;;5.07;4.68;;;;;;;;;;4762967;30;20074;-76
2023/06/21 03:58:06;;;;;;;5.53;5.13;;;;;;;;;;4772102;29;20063;-76
2023/06/21 04:00:34;;;;;;;5.20;4.80;;;;;;;;;;4776540;29;20089;-75
2023/06/21 04:03:02;;;;;;;5.78;5.18;;;;;;;;;;4766157;30;20055;-76
2023/06/21 04:05:29;;;;;;;5.22;4.70;;;;;;;;;;4761453;30;20131;-75
2023/06/21 04:07:58;;;;;;;5.13;4.72;;;;;;;;;;4762009;30;20055;-76
2023/06/21 04:10:26;;;;;;;4.97;4.57;;;;;;;;;;4761551;30;20063;-76
2023/06/21 04:12:57;;;;;;;4.13;3.92;;;;;;;;;;4759286;30;20056;-76
2023/06/21 04:15:26;;;;;;;4.65;4.35;;;;;;;;;;4757224;30;20051;-75
2023/06/21 04:17:54;;;;;;;4.53;4.22;;;;;;;;;;4767833;30;20600;-76
2023/06/21 04:20:21;;;;;;;4.68;4.38;;;;;;;;;;4755484;30;20048;-76
2023/06/21 04:22:49;;;;;;;4.93;4.53;;;;;;;;;;4763013;30;20535;-76
2023/06/21 04:25:17;;;;;;;5.18;4.88;;;;;;;;;;4759280;30;20086;-76
2023/06/21 04:27:47;;;;;;;5.40;5.00;;;;;;;;;;4774731;29;20051;-76
2023/06/21 04:30:17;;;;;;;4.75;4.35;;;;;;;;;;4774028;30;20052;-75
2023/06/21 04:32:45;;;;;;;5.40;5.00;;;;;;;;;;4759934;30;20067;-76
2023/06/21 04:35:17;;;;;;;5.40;5.00;;;;;;;;;;4763358;30;20043;-76
2023/06/21 04:37:46;;;;;;;4.88;4.50;;;;;;;;;;4774924;30;20081;-78
2023/06/21 04:40:18;;;;;;;6.00;5.50;;;;;;;;;;4762936;30;20052;-78
2023/06/21 04:42:47;;;;;;;5.47;4.97;;;;;;;;;;4765459;30;20055;-77
2023/06/21 04:45:15;;;;;;;5.72;4.88;;;;;;;;;;4762670;30;20055;-77
2023/06/21 04:47:43;;;;;;;5.10;4.65;;;;;;;;;;4765815;30;20071;-77
2023/06/21 04:50:11;;;;;;;5.95;5.45;;;;;;;;;;4761999;30;20060;-77
2023/06/21 04:52:48;;;;;;;6.10;5.60;;;;;;;;;;4762033;30;20468;-78
2023/06/21 04:55:18;;;;;;;5.45;5.05;;;;;;;;;;4761206;30;20047;-78
2023/06/21 04:57:47;;;;;;;6.07;5.07;;;;;;;;;;4762824;30;20079;-79
2023/06/21 05:00:15;;;;;;;5.85;5.45;;;;;;;;;;4761167;30;20047;-77
2023/06/21 05:02:42;;;;;;;6.15;5.68;;;;;;;;;;4757126;30;20093;-78
2023/06/21 05:05:10;;;;;;;6.68;5.55;;;;;;;;;;4760031;30;20059;-78
2023/06/21 05:07:38;;;;;;;5.13;4.72;;;;;;;;;;4760253;30;20690;-77
2023/06/21 05:10:07;;;;;;;6.07;5.57;;;;;;;;;;4759880;30;20056;-78
2023/06/21 05:12:36;;;;;;;6.22;5.75;;;;;;;;;;4761532;30;20135;-77
2023/06/21 05:15:05;;;;;;;6.35;5.85;;;;;;;;;;4766360;30;20079;-77
2023/06/21 05:17:33;;;;;;;5.82;5.43;;;;;;;;;;4761008;30;20101;-78
2023/06/21 05:20:04;;;;;;;5.60;5.17;;;;;;;;;;4752719;30;20069;-78
2023/06/21 05:22:32;;;;;;;5.63;5.22;;;;;;;;;;4761777;30;20381;-78
2023/06/21 05:25:04;;;;;;;6.05;5.45;;;;;;;;;;4761099;30;20052;-79
2023/06/21 05:27:32;;;;;;;6.47;5.97;;;;;;;;;;4759627;30;20060;-79
2023/06/21 05:30:00;;;;;;;6.32;5.72;;;;;;;;;;4761107;30;20868;-77
2023/06/21 05:32:50;;;;;;;6.68;6.07;;;;;;;;;;4767620;30;20055;-78
2023/06/21 05:35:21;;;;;;;5.80;5.38;;;;;;;;;;4758906;30;20059;-77
2023/06/21 05:37:49;;;;;;;5.50;5.10;;;;;;;;;;4756751;30;20056;-77
2023/06/21 05:40:17;;;;;;;5.20;4.80;;;;;;;;;;4755046;30;20035;-78
2023/06/21 05:42:45;;;;;;;5.18;4.78;;;;;;;;;;4760170;30;20567;-76
2023/06/21 05:45:13;;;;;;;5.05;4.53;;;;;;;;;;4754640;30;20063;-77
2023/06/21 05:47:40;;;;;;;6.05;4.85;;;;;;;;;;4761502;30;20059;-76
2023/06/21 05:50:08;;;;;;;5.70;5.10;;;;;;;;;;4761707;30;20127;-77
2023/06/21 05:52:35;;;;;;;5.28;4.78;;;;;;;;;;4759831;30;20125;-77
2023/06/21 05:55:06;;;;;;;5.68;5.10;;;;;;;;;;4758165;30;20449;-77
2023/06/21 05:57:36;;;;;;;5.38;4.97;;;;;;;;;;4761075;30;20139;-76
2023/06/21 06:00:08;;;;;;;6.13;5.40;;;;;;;;;;4760849;30;20261;-77
2023/06/21 06:02:44;;;;;;;6.07;5.10;;;;;;;;;;4760322;30;20051;-76
2023/06/21 06:05:12;;;;;;;5.72;5.32;;;;;;;;;;4758186;30;20297;-76
2023/06/21 06:07:39;;;;;;;5.70;5.20;;;;;;;;;;4757426;30;20052;-77
2023/06/21 06:10:07;;;;;;;5.85;5.40;;;;;;;;;;4762017;30;20055;-77
2023/06/21 06:12:34;;;;;;;6.30;5.80;;;;;;;;;;4762147;30;20082;-76
2023/06/21 06:15:03;;;;;;;6.18;5.57;;;;;;;;;;4760570;30;20060;-76
2023/06/21 06:17:30;;;;;;;5.57;5.18;;;;;;;;;;4756547;30;20070;-76
2023/06/21 06:19:58;;;;;;;6.40;5.78;;;;;;;;;;4761303;30;20060;-77
2023/06/21 06:22:25;;;;;;;6.53;5.93;;;;;;;;;;4762218;30;20064;-76
2023/06/21 06:24:53;;;;;;;6.20;5.80;;;;;;;;;;4761097;30;20159;-77
2023/06/21 06:27:21;;;;;;;5.50;5.10;;;;;;;;;;4765906;30;20079;-77
2023/06/21 06:29:48;;;;;;;6.38;5.88;;;;;;;;;;4765590;30;20051;-77
2023/06/21 06:32:15;;;;;;;6.05;5.55;;;;;;;;;;4758143;30;20525;-77
2023/06/21 06:34:43;;;;;;;6.63;6.03;;;;;;;;;;4763812;30;20492;-77
2023/06/21 06:37:11;;;;;;;5.65;5.25;;;;;;;;;;4764477;30;20060;-77
2023/06/21 06:39:45;;;;;;;4.75;4.45;;;;;;;;;;4763211;30;20055;-77
2023/06/21 06:42:12;;;;;;;5.30;4.93;;;;;;;;;;4763395;30;20056;-76
2023/06/21 06:44:40;;;;;;;5.18;4.78;;;;;;;;;;4764736;30;20051;-77
2023/06/21 06:47:08;;;;;;;5.03;4.72;;;;;;;;;;4764897;30;20060;-77
2023/06/21 06:49:35;;;;;;;5.20;4.85;;;;;;;;;;4764218;30;20063;-77
2023/06/21 06:52:03;;;;;;;4.97;4.60;;;;;;;;;;4762799;30;20082;-77
2023/06/21 06:54:31;;;;;;;4.65;4.35;;;;;;;;;;4773773;24;20078;-77
2023/06/21 06:57:01;;;;;;;4.68;4.38;;;;;;;;;;4738327;30;20530;-76
2023/06/21 06:59:28;;;;;;;5.28;4.88;;;;;;;;;;4738651;30;20113;-76
2023/06/21 07:01:57;;;;;;;5.10;4.70;;;;;;;;;;4722118;30;20068;-77
2023/06/21 07:04:25;;;;;;;5.18;4.78;;;;;;;;;;4722892;30;20048;-77
2023/06/21 07:06:53;;;;;;;4.70;4.40;;;;;;;;;;4725891;30;20480;-77
2023/06/21 07:09:22;;;;;;;4.60;4.30;;;;;;;;;;4722283;30;20149;-76
2023/06/21 07:11:49;;;;;;;4.88;3.90;;;;;;;;;;4721879;30;20049;-77
2023/06/21 07:14:17;;;;;;;4.68;4.32;;;;;;;;;;4727583;30;20147;-76
2023/06/21 07:16:44;;;;;;;6.57;5.90;;;;;;;;;;4724495;30;20212;-77
2023/06/21 07:19:11;;;;;;;6.00;5.40;;;;;;;;;;4724155;30;20067;-77
2023/06/21 07:21:40;;;;;;;5.63;5.13;;;;;;;;;;4725977;30;20052;-77
2023/06/21 07:24:07;;;;;;;4.75;4.35;;;;;;;;;;4728104;30;20056;-77
2023/06/21 07:26:34;;;;;;;4.80;4.45;;;;;;;;;;4726671;30;20044;-76
2023/06/21 07:29:02;;;;;;;4.30;3.90;;;;;;;;;;4723677;30;20545;-75
2023/06/21 07:31:32;;;;;;;4.97;4.57;;;;;;;;;;4723563;30;20063;-76
2023/06/21 07:34:00;;;;;;;5.30;4.80;;;;;;;;;;4724904;30;20056;-76
2023/06/21 07:36:34;;;;;;;4.90;4.60;;;;;;;;;;4727405;30;20052;-76
2023/06/21 07:39:02;;;;;;;4.60;4.30;;;;;;;;;;4724712;30;20819;-77
2023/06/21 07:41:30;;;;;;;4.53;4.15;;;;;;;;;;4727860;30;20056;-79
2023/06/21 07:43:57;;;;;;;4.18;3.88;;;;;;;;;;4723214;30;20197;-77
2023/06/21 07:46:24;;;;;;;5.18;4.68;;;;;;;;;;4731437;30;20511;-76
2023/06/21 07:48:52;;;;;;;5.13;4.63;;;;;;;;;;4725072;30;20056;-78
2023/06/21 07:51:19;;;;;;;4.70;4.40;;;;;;;;;;4730742;30;20056;-77
2023/06/21 07:53:47;;;;;;;4.50;4.20;;;;;;;;;;4728284;30;20061;-75
2023/06/21 07:56:16;;;;;;;4.45;4.15;;;;;;;;;;4721431;30;20123;-75
2023/06/21 07:58:43;;;;;;;4.18;3.88;;;;;;;;;;4728284;30;20056;-75
2023/06/21 08:01:12;;;;;;;4.63;4.22;;;;;;;;;;4730641;30;20144;-75
2023/06/21 08:03:42;;;;;;;4.10;3.72;;;;;;;;;;4726264;30;20388;-77
2023/06/21 08:06:11;;;;;;;4.40;4.00;;;;;;;;;;4723072;30;20064;-75
2023/06/21 08:08:39;;;;;;;4.47;4.18;;;;;;;;;;4728131;30;20315;-76
2023/06/21 08:11:06;;;;;;;4.30;4.00;;;;;;;;;;4723554;30;20061;-75
2023/06/21 08:13:34;;;;;;;3.88;3.53;;;;;;;;;;4726263;30;20119;-75
2023/06/21 08:16:01;;;;;;;4.10;3.78;;;;;;;;;;4727655;30;20133;-76
2023/06/21 08:18:29;;;;;;;4.32;3.92;;;;;;;;;;4724121;30;20053;-75
2023/06/21 08:20:56;;;;;;;4.03;3.72;;;;;;;;;;4717514;30;20076;-75
2023/06/21 08:23:24;;;;;;;4.05;3.75;;;;;;;;;;4727556;30;20049;-76
2023/06/21 08:25:52;;;;;;;4.30;4.00;;;;;;;;;;4724781;30;20137;-77
2023/06/21 08:28:19;;;;;;;3.88;3.58;;;;;;;;;;4720769;30;20052;-75
2023/06/21 08:30:47;;;;;;;4.30;3.90;;;;;;;;;;4741716;30;20060;-75
2023/06/21 08:33:14;;;;;;;3.72;3.50;;;;;;;;;;4722482;30;20063;-75
2023/06/21 08:35:42;;;;;;;4.20;3.80;;;;;;;;;;4743945;30;20075;-76
2023/06/21 08:38:09;;;;;;;3.88;3.60;;;;;;;;;;4727441;30;20060;-75
2023/06/21 08:40:54;;;;;;;3.38;3.17;;;;;;;;;;4725462;30;20052;-75
2023/06/21 08:43:22;;;;;;;3.42;3.20;;;;;;;;;;4725537;30;20480;-75
2023/06/21 08:45:50;;;;;;;3.40;3.20;;;;;;;;;;4725595;30;20056;-75
2023/06/21 08:48:17;;;;;;;4.05;3.65;;;;;;;;;;4727740;30;20061;-77
2023/06/21 08:50:45;;;;;;;3.35;3.05;;;;;;;;;;4729455;30;20056;-76
2023/06/21 08:53:13;;;;;;;3.72;3.28;;;;;;;;;;4727812;30;20146;-76
2023/06/21 08:55:42;;;;;;;3.53;3.25;;;;;;;;;;4730998;30;20138;-75
2023/06/21 08:58:16;;;;;;;4.30;3.88;;;;;;;;;;4727408;30;20084;-77
2023/06/21 09:00:58;;;;;;;3.95;3.63;;;;;;;;;;4727779;30;20118;-75
2023/06/21 09:03:45;;;;;;;3.72;3.42;;;;;;;;;;4715227;30;20053;-76
2023/06/21 09:06:19;;;;;;;3.25;3.00;;;;;;;;;;4727767;30;20568;-75
2023/06/21 09:08:47;;;;;;;2.72;2.53;;;;;;;;;;4723270;30;20431;-76
2023/06/21 09:11:17;;;;;;;3.08;2.80;;;;;;;;;;4724975;30;20084;-75
2023/06/21 09:13:45;;;;;;;5.63;3.70;;;;;;;;;;4723677;30;20122;-75
2023/06/21 09:16:12;;;;;;;3.50;3.20;;;;;;;;;;4726893;30;20067;-75
2023/06/21 09:18:40;;;;;;;2.88;2.67;;;;;;;;;;4727895;30;20407;-75
2023/06/21 09:21:08;;;;;;;2.85;2.65;;;;;;;;;;4728411;30;20126;-75
2023/06/21 09:23:37;;;;;;;3.83;3.22;;;;;;;;;;4728543;30;20098;-75
2023/06/21 09:26:04;;;;;;;4.35;3.70;;;;;;;;;;4728322;30;20056;-75
2023/06/21 09:28:32;;;;;;;3.35;2.90;;;;;;;;;;4728377;30;20068;-75
2023/06/21 09:30:59;;;;;;;3.08;2.88;;;;;;;;;;4728461;30;20463;-76
2023/06/21 09:33:27;;;;;;;2.67;2.50;;;;;;;;;;4727654;30;20057;-76
2023/06/21 09:35:56;;;;;;;2.80;2.65;;;;;;;;;;4729930;30;20060;-75
2023/06/21 09:38:24;;;;;;;3.40;3.20;;;;;;;;;;4728160;30;20063;-75
2023/06/21 09:40:52;;;;;;;3.20;3.00;;;;;;;;;;4727669;30;20336;-76
2023/06/21 09:43:21;;;;;;;4.13;3.38;;;;;;;;;;4728200;30;20072;-75
2023/06/21 09:46:03;;;;;;;2.85;2.63;;;;;;;;;;4728433;30;20700;-75
2023/06/21 09:48:37;;;;;;;2.60;2.40;;;;;;;;;;4723097;30;20075;-75
2023/06/21 09:51:06;;;;;;;3.42;3.13;;;;;;;;;;4739339;30;20080;-75
2023/06/21 09:53:33;;;;;;;2.97;2.78;;;;;;;;;;4732295;30;20150;-75
2023/06/21 09:56:01;;;;;;;3.97;3.35;;;;;;;;;;4727479;30;20440;-76
2023/06/21 09:58:29;;;;;;;3.00;2.80;;;;;;;;;;4727892;30;20453;-75
2023/06/21 10:00:56;;;;;;;3.03;2.63;;;;;;;;;;4729764;30;20096;-78
2023/06/21 10:03:26;;;;;;;6.00;3.53;;;;;;;;;;4735346;30;20091;-75
2023/06/21 10:05:57;;;;;;;3.40;3.10;;;;;;;;;;4731232;30;20045;-76
2023/06/21 10:08:25;;;;;;;2.95;2.70;;;;;;;;;;4731378;30;20056;-76
2023/06/21 10:10:53;;;;;;;2.67;2.47;;;;;;;;;;4731350;30;20059;-76
2023/06/21 10:13:31;;;;;;;2.90;2.55;;;;;;;;;;4731180;30;20500;-77
2023/06/21 10:16:02;;;;;;;2.60;2.40;;;;;;;;;;4723754;30;20161;-76
2023/06/21 10:18:31;;;;;;;2.22;2.05;;;;;;;;;;4731324;30;20048;-77
2023/06/21 10:21:03;;;;;;;3.83;2.50;;;;;;;;;;4731523;30;20679;-76
2023/06/21 10:23:32;;;;;;;2.47;2.28;;;;;;;;;;4730809;30;20048;-77
2023/06/21 10:26:00;;;;;;;2.47;2.20;;;;;;;;;;4728376;30;20049;-76
2023/06/21 10:28:29;;;;;;;3.45;2.15;;;;;;;;;;4729825;30;20053;-76
2023/06/21 10:30:56;;;;;;;2.85;2.10;;;;;;;;;;4730498;30;20049;-76
2023/06/21 10:33:26;;;;;;;5.72;2.80;;;;;;;;;;4730632;30;20058;-76
2023/06/21 10:35:54;;;;;;;2.53;2.30;;;;;;;;;;4730706;30;20049;-76
2023/06/21 10:38:45;;;;;;;5.05;2.10;;;;;;;;;;4730412;30;20053;-76
2023/06/21 10:41:14;;;;;;;5.60;2.00;;;;;;;;;;4724798;30;20064;-77
2023/06/21 10:43:42;;;;;;;2.20;1.98;;;;;;;;;;4730583;30;20068;-76
2023/06/21 10:46:11;;;;;;;4.40;3.13;;;;;;;;;;4730095;30;20057;-76
2023/06/21 10:48:38;;;;;;;3.58;2.80;;;;;;;;;;4730788;30;20049;-76
2023/06/21 10:51:07;;;;;;;2.50;2.00;;;;;;;;;;4731723;30;20060;-75
2023/06/21 10:53:35;;;;;;;2.60;2.08;;;;;;;;;;4726302;30;20103;-76
2023/06/21 10:56:07;;;;;;;2.70;2.08;;;;;;;;;;4720048;30;20096;-77
2023/06/21 10:58:35;;;;;;;3.65;2.25;;;;;;;;;;4727301;30;20061;-76
2023/06/21 11:01:02;;;;;;;3.35;2.33;;;;;;;;;;4726983;30;20048;-75
2023/06/21 11:03:30;;;;;;;3.13;2.60;;;;;;;;;;4726344;30;20051;-76
2023/06/21 11:06:18;;;;;;;3.40;2.60;;;;;;;;;;4728695;30;20474;-75
2023/06/21 11:08:45;;;;;;;3.78;3.00;;;;;;;;;;4722827;30;20079;-78
2023/06/21 11:11:32;;;;;;;2.95;2.72;;;;;;;;;;4727922;30;20140;-77
2023/06/21 11:14:03;;;;;;;4.95;2.72;;;;;;;;;;4731794;30;20063;-78
2023/06/21 11:16:31;;;;;;;4.10;2.40;;;;;;;;;;4727267;30;20049;-77
2023/06/21 11:19:02;;;;;;;3.50;2.50;;;;;;;;;;4741982;30;20088;-76
2023/06/21 11:21:45;;;;;;;2.33;2.13;;;;;;;;;;4742573;30;20053;-76
2023/06/21 11:24:15;;;;;;;2.28;2.08;;;;;;;;;;4734024;30;20053;-77
2023/06/21 11:26:52;;;;;;;2.50;2.28;;;;;;;;;;4728798;30;20056;-76
2023/06/21 11:29:20;;;;;;;3.95;2.30;;;;;;;;;;4728316;30;20048;-75
2023/06/21 11:31:47;;;;;;;3.15;2.70;;;;;;;;;;4726862;30;20139;-78
2023/06/21 11:34:23;;;;;;;3.42;2.55;;;;;;;;;;4726374;30;20139;-77
2023/06/21 11:36:51;;;;;;;3.65;2.53;;;;;;;;;;4728638;30;20458;-77
2023/06/21 11:39:18;;;;;;;4.80;3.58;;;;;;;;;;4729651;30;20048;-77
2023/06/21 11:41:47;;;;;;;3.13;2.60;;;;;;;;;;4724149;30;20192;-77
2023/06/21 11:44:24;;;;;;;2.95;2.75;;;;;;;;;;4721945;30;20061;-77
2023/06/21 11:46:57;;;;;;;2.50;2.30;;;;;;;;;;4728156;30;20056;-78
2023/06/21 11:49:31;;;;;;;2.85;2.55;;;;;;;;;;4723712;30;20092;-77
2023/06/21 11:52:03;;;;;;;2.67;2.45;;;;;;;;;;4727779;30;20060;-77
2023/06/21 11:54:34;;;;;;;2.50;2.30;;;;;;;;;;4724321;30;20581;-78
2023/06/21 11:57:07;;;;;;;3.13;2.30;;;;;;;;;;4724994;30;20076;-77
2023/06/21 11:59:56;;;;;;;2.40;2.20;;;;;;;;;;4722640;30;20125;-76
2023/06/21 12:02:24;;;;;;;2.75;2.50;;;;;;;;;;4723895;30;20072;-78
2023/06/21 12:04:53;;;;;;;2.28;2.08;;;;;;;;;;4722519;30;20052;-77
2023/06/21 12:07:21;;;;;;;2.72;2.30;;;;;;;;;;4727720;30;20053;-77
2023/06/21 12:09:50;;;;;;;2.60;2.08;;;;;;;;;;4726588;30;20086;-77
2023/06/21 12:12:25;;;;;;;2.00;1.90;;;;;;;;;;4727324;30;20056;-76
2023/06/21 12:14:53;;;;;;;3.42;2.53;;;;;;;;;;4725657;30;20118;-78
2023/06/21 12:17:21;;;;;;;3.05;2.75;;;;;;;;;;4726976;30;20171;-76
2023/06/21 12:19:49;;;;;;;4.35;1.98;;;;;;;;;;4726352;30;20052;-77
2023/06/21 12:22:16;;;;;;;3.88;2.45;;;;;;;;;;4722329;30;20520;-77
2023/06/21 12:24:44;;;;;;;3.55;2.80;;;;;;;;;;4723904;30;20061;-76
2023/06/21 12:27:13;;;;;;;2.42;2.22;;;;;;;;;;4712395;30;20516;-75
2023/06/21 12:29:48;;;;;;;2.88;2.47;;;;;;;;;;4724988;30;20045;-76
2023/06/21 12:32:17;;;;;;;2.40;2.20;;;;;;;;;;4728482;30;20056;-75
2023/06/21 12:34:45;;;;;;;4.18;2.70;;;;;;;;;;4721557;30;20087;-77
2023/06/21 12:37:19;;;;;;;5.13;2.50;;;;;;;;;;4725908;30;20530;-78
2023/06/21 12:39:53;;;;;;;3.58;2.80;;;;;;;;;;4728647;30;20061;-76
2023/06/21 12:42:28;;;;;;;4.32;1.98;;;;;;;;;;4722973;30;20530;-76
2023/06/21 12:44:57;;;;;;;16.25;2.60;;;;;;;;;;4726955;30;20409;-76
2023/06/21 12:47:25;;;;;;;6.70;1.73;;;;;;;;;;4727037;30;20057;-77
2023/06/21 12:50:01;;;;;;;4.35;1.60;;;;;;;;;;4729017;30;20053;-77
2023/06/21 12:52:29;;;;;;;3.88;1.50;;;;;;;;;;4722711;30;20139;-76
2023/06/21 12:54:58;;;;;;;7.30;1.45;;;;;;;;;;4753654;24;20377;-87
2023/06/21 12:57:26;;;;;;;6.25;1.40;;;;;;;;;;4748178;30;20454;-87
2023/06/21 12:59:54;;;;;;;6.10;1.77;;;;;;;;;;4748115;30;20135;-85
2023/06/21 13:02:26;;;;;;;4.22;1.17;;;;;;;;;;4746948;30;20566;-87
2023/06/21 13:04:54;;;;;;;4.63;1.45;;;;;;;;;;4750937;30;20545;-86
2023/06/21 13:07:24;;;;;;;6.32;1.60;;;;;;;;;;4746205;30;20055;-85
2023/06/21 13:09:52;;;;;;;7.10;1.58;;;;;;;;;;4749405;30;20159;-85
2023/06/21 13:12:19;;;;;;;3.33;1.60;;;;;;;;;;4748889;30;20048;-85
2023/06/21 13:14:46;;;;;;;3.03;1.15;;;;;;;;;;4751418;30;20578;-86
2023/06/21 13:17:14;;;;;;;3.90;1.70;;;;;;;;;;4749688;30;20139;-84
2023/06/21 13:19:42;;;;;;;5.72;1.60;;;;;;;;;;4751231;30;20058;-85
2023/06/21 13:22:11;;;;;;;3.25;1.67;;;;;;;;;;4751105;30;20067;-83
2023/06/21 13:24:38;;;;;;;3.88;1.58;;;;;;;;;;4749004;30;20428;-86
2023/06/21 13:27:05;;;;;;;3.60;1.40;;;;;;;;;;4751704;30;20048;-86
2023/06/21 13:29:33;;;;;;;3.15;1.38;;;;;;;;;;4740830;30;20044;-86
2023/06/21 13:32:00;;;;;;;4.60;1.52;;;;;;;;;;4749920;30;20079;-85
2023/06/21 13:34:28;;;;;;;4.20;1.40;;;;;;;;;;4750845;30;20063;-85
2023/06/21 13:36:55;;;;;;;6.90;1.58;;;;;;;;;;4754985;30;20056;-86
2023/06/21 13:39:22;;;;;;;3.10;1.30;;;;;;;;;;4758331;30;20064;-85
2023/06/21 13:41:50;;;;;;;2.42;1.20;;;;;;;;;;4757178;30;20141;-86
2023/06/21 13:44:18;;;;;;;2.60;1.30;;;;;;;;;;4752595;30;20109;-85
2023/06/21 13:46:45;;;;;;;3.60;1.60;;;;;;;;;;4753982;30;20056;-88
2023/06/21 13:49:12;;;;;;;4.50;1.63;;;;;;;;;;4756183;30;20052;-86
2023/06/21 13:51:40;;;;;;;3.45;1.67;;;;;;;;;;4754604;30;20048;-85
2023/06/21 13:54:08;;;;;;;3.00;1.50;;;;;;;;;;4758342;30;20048;-86
2023/06/21 13:56:35;;;;;;;4.90;2.15;;;;;;;;;;4755901;30;20620;-86
2023/06/21 13:59:03;;;;;;;4.53;1.60;;;;;;;;;;4752491;30;20169;-85
2023/06/21 14:01:30;;;;;;;5.30;1.58;;;;;;;;;;4751709;30;20106;-86
2023/06/21 14:03:57;;;;;;;6.40;1.80;;;;;;;;;;4760899;30;20055;-85
2023/06/21 14:06:25;;;;;;;3.88;1.50;;;;;;;;;;4751167;30;20082;-84
2023/06/21 14:08:53;;;;;;;3.17;1.42;;;;;;;;;;4752739;30;20082;-84
2023/06/21 14:11:20;;;;;;;5.63;2.00;;;;;;;;;;4753012;30;20075;-85
2023/06/21 14:13:49;;;;;;;4.28;1.52;;;;;;;;;;4751969;30;20048;-84
2023/06/21 14:16:16;;;;;;;5.40;1.50;;;;;;;;;;4752675;30;20048;-85
2023/06/21 14:18:44;;;;;;;2.67;1.52;;;;;;;;;;4751813;30;20066;-85
2023/06/21 14:21:15;;;;;;;5.90;1.75;;;;;;;;;;4753221;30;20520;-85
2023/06/21 14:23:42;;;;;;;2.83;1.45;;;;;;;;;;4751744;30;20102;-85
2023/06/21 14:26:10;;;;;;;2.95;1.70;;;;;;;;;;4750866;30;20140;-84
2023/06/21 14:28:39;;;;;;;4.15;1.77;;;;;;;;;;4752596;30;20112;-85
2023/06/21 14:31:07;;;;;;;5.18;1.70;;;;;;;;;;4753584;30;20135;-85
2023/06/21 14:33:34;;;;;;;4.50;1.92;;;;;;;;;;4759737;30;20071;-85
2023/06/21 14:36:02;;;;;;;6.82;2.30;;;;;;;;;;4757595;30;20076;-84
2023/06/21 14:38:30;;;;;;;4.70;2.03;;;;;;;;;;4762399;30;20056;-84
2023/06/21 14:40:58;;;;;;;4.45;1.85;;;;;;;;;;4765661;30;20465;-84
2023/06/21 14:43:25;;;;;;;3.17;1.38;;;;;;;;;;4764560;30;20048;-84
2023/06/21 14:45:53;;;;;;;5.10;1.75;;;;;;;;;;4753373;30;20143;-84
2023/06/21 14:48:20;;;;;;;3.45;2.05;;;;;;;;;;4758811;30;20066;-84
2023/06/21 14:50:47;;;;;;;4.55;2.08;;;;;;;;;;4753388;30;20404;-84
2023/06/21 14:53:15;;;;;;;3.15;1.60;;;;;;;;;;4751630;30;20062;-85
2023/06/21 14:55:42;;;;;;;2.13;1.35;;;;;;;;;;4751828;30;20137;-84
2023/06/21 14:58:10;;;;;;;3.97;1.70;;;;;;;;;;4751911;30;20064;-85